Terminal Aerodrome Forecast
Issued by NWS

Home | Current Version | Previous Version | Text Only | Print | Product List | Glossary On
Versions: 1 2 3 4 5 6 7 8 9 10 11 12 13 14 15 16 17 18 19
000
FTUS46 KLOX 222300 RRA
TAFPMD
TAF
KPMD 222340Z 2300/2324 29028G34KT P6SM SCT250
     FM230300 26015G20KT P6SM SCT250
     FM230700 29012KT P6SM SKC
     FM231100 24006KT P6SM SKC
     FM231800 04009KT P6SM SKC
     FM232100 06014G20KT P6SM SKC=

USA.gov is the U.S. government's official web portal to all federal, state and local government web resources and services.